createdAt,value
2023-04-16T00:01:34.428Z,101092.00
2023-04-16T00:04:03.044Z,101095.00
2023-04-16T00:06:32.481Z,101100.69
2023-04-16T00:09:00.759Z,101101.78
2023-04-16T00:11:28.877Z,101101.78
2023-04-16T00:13:57.038Z,101094.69
2023-04-16T00:16:26.919Z,101102.88
2023-04-16T00:18:55.196Z,101087.34
2023-04-16T00:21:23.319Z,101090.91
2023-04-16T00:23:52.060Z,101099.06
2023-04-16T00:26:20.538Z,101105.59
2023-04-16T00:28:48.820Z,101107.22
2023-04-16T00:31:17.396Z,101111.03
2023-04-16T00:33:46.838Z,101113.19
2023-04-16T00:36:15.123Z,101106.97
2023-04-16T00:38:43.404Z,101116.16
2023-04-16T00:41:11.604Z,101117.00
2023-04-16T00:43:43.299Z,101115.94
2023-04-16T00:46:11.512Z,101116.75
2023-04-16T00:48:42.182Z,101115.38
2023-04-16T00:51:12.386Z,101109.38
2023-04-16T00:53:40.690Z,101099.88
2023-04-16T00:56:09.313Z,101111.84
2023-04-16T00:58:37.449Z,101118.09
2023-04-16T01:01:05.922Z,101116.47
2023-04-16T01:03:38.176Z,101116.75
2023-04-16T01:06:07.453Z,101114.03
2023-04-16T01:08:36.997Z,101111.03
2023-04-16T01:11:05.257Z,101119.19
2023-04-16T01:13:33.638Z,101123.53
2023-04-16T01:16:02.150Z,101115.94
2023-04-16T01:18:30.862Z,101127.94
2023-04-16T01:21:00.419Z,101125.19
2023-04-16T01:23:28.672Z,101112.38
2023-04-16T01:25:57.132Z,101119.75
2023-04-16T01:28:25.500Z,101120.84
2023-04-16T01:30:53.645Z,101131.75
2023-04-16T01:33:21.983Z,101131.19
2023-04-16T01:35:50.236Z,101131.44
2023-04-16T01:38:19.697Z,101133.66
2023-04-16T01:40:47.939Z,101141.25
2023-04-16T01:43:16.357Z,101141.53
2023-04-16T01:45:44.542Z,101136.63
2023-04-16T01:48:12.900Z,101143.72
2023-04-16T01:50:41.103Z,101144.53
2023-04-16T01:53:09.624Z,101145.88
2023-04-16T01:55:40.008Z,101148.06
2023-04-16T01:58:10.877Z,101145.06
2023-04-16T02:00:40.164Z,101144.78
2023-04-16T02:03:08.664Z,101132.28
2023-04-16T02:05:36.808Z,101140.97
2023-04-16T02:08:05.032Z,101129.03
2023-04-16T02:10:48.835Z,101130.66
2023-04-16T02:13:17.525Z,101138.28
2023-04-16T02:15:45.965Z,101131.75
2023-04-16T02:18:14.258Z,101128.75
2023-04-16T02:20:42.562Z,101136.13
2023-04-16T02:23:11.718Z,101135.00
2023-04-16T02:25:41.153Z,101136.63
2023-04-16T02:28:10.910Z,101138.00
2023-04-16T02:30:40.288Z,101126.84
2023-04-16T02:33:09.344Z,101135.81
2023-04-16T02:35:37.958Z,101142.34
2023-04-16T02:38:06.222Z,101139.66
2023-04-16T02:40:34.707Z,101135.03
2023-04-16T02:43:03.138Z,101140.47
2023-04-16T02:45:32.593Z,101151.94
2023-04-16T02:48:01.368Z,101146.47
2023-04-16T02:50:29.704Z,101153.06
2023-04-16T02:52:57.754Z,101143.50
2023-04-16T02:55:26.154Z,101146.78
2023-04-16T02:57:54.545Z,101143.22
2023-04-16T03:00:23.075Z,101143.75
2023-04-16T03:02:53.032Z,101138.34
2023-04-16T03:05:21.500Z,101137.75
2023-04-16T03:07:50.649Z,101145.63
2023-04-16T03:10:33.153Z,101142.09
2023-04-16T03:13:01.490Z,101136.13
2023-04-16T03:15:29.740Z,101139.38
2023-04-16T03:18:00.037Z,101146.72
2023-04-16T03:20:28.669Z,101145.41
2023-04-16T03:22:57.216Z,101146.50
2023-04-16T03:25:25.524Z,101148.69
2023-04-16T03:27:53.709Z,101144.91
2023-04-16T03:30:21.968Z,101155.25
2023-04-16T03:32:50.695Z,101144.91
2023-04-16T03:35:20.417Z,101153.06
2023-04-16T03:37:49.940Z,101157.97
2023-04-16T03:40:18.316Z,101160.69
2023-04-16T03:42:46.483Z,101153.06
2023-04-16T03:45:14.983Z,101155.28
2023-04-16T03:47:43.220Z,101159.34
2023-04-16T03:50:13.325Z,101160.97
2023-04-16T03:52:42.844Z,101160.72
2023-04-16T03:55:11.218Z,101156.91
2023-04-16T03:57:39.333Z,101159.63
2023-04-16T04:00:08.146Z,101158.53
2023-04-16T04:02:36.597Z,101158.53
2023-04-16T04:05:05.046Z,101158.81
2023-04-16T04:07:33.408Z,101164.28
2023-04-16T04:10:02.903Z,101164.53
2023-04-16T04:12:31.004Z,101162.63
2023-04-16T04:14:59.164Z,101165.59
2023-04-16T04:17:27.786Z,101157.44
2023-04-16T04:20:01.357Z,101168.34
2023-04-16T04:22:30.635Z,101172.44
2023-04-16T04:24:58.881Z,101169.16
2023-04-16T04:27:28.591Z,101172.97
2023-04-16T04:29:57.464Z,101172.16
2023-04-16T04:32:25.822Z,101174.34
2023-04-16T04:34:54.144Z,101167.25
2023-04-16T04:37:22.214Z,101169.16
2023-04-16T04:39:50.866Z,101172.97
2023-04-16T04:42:19.312Z,101174.59
2023-04-16T04:44:48.919Z,101182.50
2023-04-16T04:47:17.089Z,101176.50
2023-04-16T04:49:45.253Z,101181.94
2023-04-16T04:52:13.532Z,101190.69
2023-04-16T04:54:42.068Z,101185.78
2023-04-16T04:57:10.421Z,101192.84
2023-04-16T04:59:38.482Z,101187.41
2023-04-16T05:02:08.277Z,101193.16
2023-04-16T05:04:36.802Z,101195.63
2023-04-16T05:07:06.499Z,101201.13
2023-04-16T05:09:34.715Z,101206.00
2023-04-16T05:12:03.260Z,101201.38
2023-04-16T05:14:31.335Z,101207.63
2023-04-16T05:16:59.794Z,101214.75
2023-04-16T05:19:29.289Z,101206.56
2023-04-16T05:21:57.552Z,101214.50
2023-04-16T05:24:25.820Z,101219.94
2023-04-16T05:26:53.897Z,101216.13
2023-04-16T05:29:22.128Z,101224.00
2023-04-16T05:31:50.236Z,101216.44
2023-04-16T05:34:18.373Z,101228.19
2023-04-16T05:36:48.060Z,101219.16
2023-04-16T05:39:16.951Z,101235.81
2023-04-16T05:41:45.351Z,101232.25
2023-04-16T05:44:13.519Z,101237.44
2023-04-16T05:46:41.676Z,101241.00
2023-04-16T05:49:11.904Z,101248.34
2023-04-16T05:51:40.281Z,101256.28
2023-04-16T05:54:09.817Z,101253.03
2023-04-16T05:56:38.118Z,101249.22
2023-04-16T05:59:06.376Z,101259.56
2023-04-16T06:01:34.624Z,101259.06
2023-04-16T06:04:02.896Z,101253.63
2023-04-16T06:06:31.392Z,101261.81
2023-04-16T06:08:59.660Z,101266.69
2023-04-16T06:11:30.528Z,101265.34
2023-04-16T06:13:58.810Z,101264.53
2023-04-16T06:16:27.018Z,101270.53
2023-04-16T06:18:55.625Z,101268.91
2023-04-16T06:21:24.154Z,101267.56
2023-04-16T06:23:52.411Z,101271.94
2023-04-16T06:26:20.647Z,101273.84
2023-04-16T06:28:50.662Z,101272.75
2023-04-16T06:31:18.830Z,101271.91
2023-04-16T06:33:47.487Z,101268.09
2023-04-16T06:36:16.650Z,101270.53
2023-04-16T06:38:45.213Z,101277.06
2023-04-16T06:41:14.622Z,101282.56
2023-04-16T06:43:42.735Z,101281.19
2023-04-16T06:46:12.413Z,101288.03
2023-04-16T06:48:40.931Z,101285.78
2023-04-16T06:51:09.378Z,101294.81
2023-04-16T06:53:37.729Z,101293.16
2023-04-16T06:56:06.351Z,101289.88
2023-04-16T06:58:34.591Z,101296.09
2023-04-16T07:01:03.178Z,101295.28
2023-04-16T07:03:33.145Z,101297.19
2023-04-16T07:06:01.503Z,101300.19
2023-04-16T07:08:30.078Z,101300.75
2023-04-16T07:10:58.228Z,101304.84
2023-04-16T07:13:26.417Z,101301.03
2023-04-16T07:15:54.950Z,101301.63
2023-04-16T07:18:23.116Z,101297.50
2023-04-16T07:20:52.630Z,101303.53
2023-04-16T07:23:20.692Z,101304.59
2023-04-16T07:25:48.837Z,101308.69
2023-04-16T07:28:17.552Z,101314.94
2023-04-16T07:30:45.869Z,101311.88
2023-04-16T07:33:14.313Z,101314.34
2023-04-16T07:35:42.983Z,101315.69
2023-04-16T07:38:12.423Z,101316.97
2023-04-16T07:40:40.688Z,101310.53
2023-04-16T07:43:10.503Z,101313.81
2023-04-16T07:45:39.295Z,101325.44
2023-04-16T07:48:08.797Z,101330.56
2023-04-16T07:50:37.232Z,101328.16
2023-04-16T07:53:07.482Z,101335.25
2023-04-16T07:55:36.994Z,101331.41
2023-04-16T07:58:06.394Z,101331.31
2023-04-16T08:00:34.693Z,101333.47
2023-04-16T08:03:02.927Z,101332.88
2023-04-16T08:05:32.617Z,101344.47
2023-04-16T08:08:01.720Z,101341.81
2023-04-16T08:10:29.835Z,101342.00
2023-04-16T08:13:01.176Z,101347.31
2023-04-16T08:15:32.299Z,101344.09
2023-04-16T08:18:00.628Z,101351.66
2023-04-16T08:20:28.954Z,101354.06
2023-04-16T08:22:57.299Z,101361.28
2023-04-16T08:25:25.733Z,101352.97
2023-04-16T08:27:54.030Z,101365.44
2023-04-16T08:30:24.149Z,101362.59
2023-04-16T08:32:52.422Z,101371.88
2023-04-16T08:35:20.618Z,101369.03
2023-04-16T08:37:48.746Z,101377.56
2023-04-16T08:40:17.076Z,101374.34
2023-04-16T08:42:46.598Z,101374.81
2023-04-16T08:45:15.811Z,101380.47
2023-04-16T08:47:46.932Z,101381.13
2023-04-16T08:50:16.084Z,101394.78
2023-04-16T08:52:47.314Z,101387.09
2023-04-16T08:55:17.545Z,101394.69
2023-04-16T08:57:48.163Z,101392.13
2023-04-16T09:00:17.530Z,101388.72
2023-04-16T09:02:47.424Z,101394.03
2023-04-16T09:05:18.229Z,101392.94
2023-04-16T09:07:47.727Z,101393.84
2023-04-16T09:10:19.131Z,101394.94
2023-04-16T09:12:47.954Z,101403.91
2023-04-16T09:15:16.376Z,101400.63
2023-04-16T09:17:45.388Z,101401.97
2023-04-16T09:20:15.981Z,101411.72
2023-04-16T09:22:44.482Z,101403.38
2023-04-16T09:25:13.276Z,101411.03
2023-04-16T09:27:42.045Z,101412.66
2023-04-16T09:30:21.906Z,101414.16
2023-04-16T09:32:50.540Z,101407.81
2023-04-16T09:35:21.122Z,101415.75
2023-04-16T09:37:56.532Z,101422.28
2023-04-16T09:40:27.389Z,101416.50
2023-04-16T09:42:58.302Z,101423.50
2023-04-16T09:45:26.570Z,101413.97
2023-04-16T09:48:03.454Z,101419.78
2023-04-16T09:50:33.479Z,101425.25
2023-04-16T09:53:03.420Z,101427.06
2023-04-16T09:55:31.673Z,101421.16
2023-04-16T09:58:00.349Z,101421.53
2023-04-16T10:00:30.061Z,101421.66
2023-04-16T10:03:04.640Z,101419.47
2023-04-16T10:05:34.414Z,101427.19
2023-04-16T10:08:02.898Z,101420.16
2023-04-16T10:10:31.574Z,101423.81
2023-04-16T10:12:59.823Z,101427.88
2023-04-16T10:15:28.748Z,101429.16
2023-04-16T10:18:00.332Z,101430.44
2023-04-16T10:20:29.464Z,101429.63
2023-04-16T10:22:59.910Z,101426.94
2023-04-16T10:25:43.390Z,101430.06
2023-04-16T10:28:13.632Z,101435.72
2023-04-16T10:30:43.898Z,101442.50
2023-04-16T10:33:13.272Z,101442.25
2023-04-16T10:35:41.478Z,101436.78
2023-04-16T10:38:24.146Z,101434.72
2023-04-16T10:40:59.794Z,101439.78
2023-04-16T10:43:29.328Z,101430.13
2023-04-16T10:45:57.644Z,101436.44
2023-04-16T10:48:27.456Z,101426.09
2023-04-16T10:51:01.094Z,101423.50
2023-04-16T10:53:30.493Z,101421.09
2023-04-16T10:56:10.876Z,101426.31
2023-04-16T10:58:39.505Z,101411.16
2023-04-16T11:01:13.480Z,101420.47
2023-04-16T11:03:42.585Z,101416.19
2023-04-16T11:06:11.516Z,101415.69
2023-04-16T11:08:51.071Z,101421.13
2023-04-16T11:11:23.287Z,101412.38
2023-04-16T11:13:55.647Z,101413.56
2023-04-16T11:16:25.641Z,101409.66
2023-04-16T11:18:55.512Z,101416.31
2023-04-16T11:21:26.800Z,101405.94
2023-04-16T11:23:58.911Z,101417.13
2023-04-16T11:26:28.526Z,101416.03
2023-04-16T11:28:57.617Z,101417.88
2023-04-16T11:31:27.485Z,101418.06
2023-04-16T11:33:56.989Z,101421.69
2023-04-16T11:36:27.847Z,101416.13
2023-04-16T11:39:04.798Z,101424.69
2023-04-16T11:41:33.118Z,101430.56
2023-04-16T11:44:02.133Z,101425.19
2023-04-16T11:46:40.483Z,101428.19
2023-04-16T11:49:09.498Z,101426.09
2023-04-16T11:51:42.027Z,101430.53
2023-04-16T11:54:19.109Z,101426.09
2023-04-16T11:56:48.601Z,101413.53
2023-04-16T11:59:18.331Z,101427.03
2023-04-16T12:01:47.923Z,101425.19
2023-04-16T12:04:16.810Z,101424.06
2023-04-16T12:07:00.201Z,101433.22
2023-04-16T12:09:30.130Z,101433.31
2023-04-16T12:11:58.802Z,101431.88
2023-04-16T12:14:26.996Z,101437.78
2023-04-16T12:16:55.418Z,101438.03
2023-04-16T12:19:23.669Z,101431.44
2023-04-16T12:21:51.868Z,101434.41
2023-04-16T12:24:22.504Z,101431.72
2023-04-16T12:26:57.387Z,101433.13
2023-04-16T12:29:27.903Z,101435.53
2023-04-16T12:31:56.213Z,101434.81
2023-04-16T12:34:41.897Z,101427.53
2023-04-16T12:37:13.036Z,101430.44
2023-04-16T12:39:42.601Z,101436.31
2023-04-16T12:42:12.800Z,101441.63
2023-04-16T12:44:41.085Z,101439.66
2023-04-16T12:47:09.799Z,101437.25
2023-04-16T12:49:38.542Z,101441.03
2023-04-16T12:52:06.977Z,101434.41
2023-04-16T12:54:35.242Z,101432.31
2023-04-16T12:57:03.982Z,101442.94
2023-04-16T12:59:33.945Z,101430.00
2023-04-16T13:02:03.637Z,101433.59
2023-04-16T13:04:32.028Z,101433.78
2023-04-16T13:07:00.465Z,101435.63
2023-04-16T13:09:28.799Z,101432.16
2023-04-16T13:11:57.186Z,101436.25
2023-04-16T13:14:26.164Z,101434.72
2023-04-16T13:16:56.094Z,101434.41
2023-04-16T13:19:24.556Z,101429.66
2023-04-16T13:21:52.643Z,101433.50
2023-04-16T13:24:21.012Z,101424.84
2023-04-16T13:26:49.294Z,101422.63
2023-04-16T13:29:17.487Z,101425.25
2023-04-16T13:31:45.781Z,101423.69
2023-04-16T13:34:15.390Z,101432.16
2023-04-16T13:36:43.513Z,101434.25
2023-04-16T13:39:11.893Z,101431.81
2023-04-16T13:41:40.260Z,101433.53
2023-04-16T13:44:08.461Z,101427.22
2023-04-16T13:46:37.863Z,101431.13
2023-04-16T13:49:08.641Z,101420.97
2023-04-16T13:51:39.040Z,101424.47
2023-04-16T13:54:07.405Z,101420.25
2023-04-16T13:56:36.101Z,101421.50
2023-04-16T13:59:04.639Z,101420.41
2023-04-16T14:01:32.942Z,101424.00
2023-04-16T14:04:05.980Z,101421.38
2023-04-16T14:06:35.038Z,101417.31
2023-04-16T14:09:04.747Z,101418.66
2023-04-16T14:11:32.955Z,101418.44
2023-04-16T14:14:01.305Z,101424.59
2023-04-16T14:16:29.722Z,101417.16
2023-04-16T14:18:59.252Z,101417.34
2023-04-16T14:21:28.904Z,101419.19
2023-04-16T14:23:58.036Z,101411.94
2023-04-16T14:26:29.295Z,101415.97
2023-04-16T14:28:57.540Z,101423.66
2023-04-16T14:31:26.051Z,101412.66
2023-04-16T14:33:54.690Z,101416.97
2023-04-16T14:36:22.885Z,101416.78
2023-04-16T14:38:51.413Z,101419.47
2023-04-16T14:41:20.270Z,101414.06
2023-04-16T14:43:50.821Z,101414.59
2023-04-16T14:46:19.243Z,101421.94
2023-04-16T14:48:47.597Z,101418.69
2023-04-16T14:51:17.306Z,101414.78
2023-04-16T14:53:46.823Z,101416.09
2023-04-16T14:56:14.960Z,101421.75
2023-04-16T14:58:43.572Z,101417.78
2023-04-16T15:01:14.978Z,101425.59
2023-04-16T15:03:43.893Z,101424.19
2023-04-16T15:06:12.131Z,101415.69
2023-04-16T15:08:40.762Z,101418.38
2023-04-16T15:11:09.114Z,101422.44
2023-04-16T15:13:37.899Z,101423.84
2023-04-16T15:16:07.007Z,101417.06
2023-04-16T15:18:37.146Z,101414.88
2023-04-16T15:21:05.827Z,101418.56
2023-04-16T15:23:34.382Z,101421.16
2023-04-16T15:26:03.281Z,101417.28
2023-04-16T15:28:31.715Z,101414.53
2023-04-16T15:31:00.394Z,101411.28
2023-04-16T15:33:28.763Z,101414.53
2023-04-16T15:35:59.172Z,101414.22
2023-04-16T15:38:29.787Z,101419.13
2023-04-16T15:40:59.473Z,101419.00
2023-04-16T15:43:28.230Z,101425.47
2023-04-16T15:45:57.403Z,101419.13
2023-04-16T15:48:26.159Z,101422.72
2023-04-16T15:50:55.272Z,101420.13
2023-04-16T15:53:25.286Z,101415.22
2023-04-16T15:55:53.910Z,101411.50
2023-04-16T15:58:23.328Z,101413.91
2023-04-16T16:00:51.926Z,101416.84
2023-04-16T16:03:20.419Z,101418.03
2023-04-16T16:05:48.863Z,101410.44
2023-04-16T16:08:17.564Z,101410.81
2023-04-16T16:10:47.686Z,101411.53
2023-04-16T16:13:18.165Z,101414.25
2023-04-16T16:15:46.265Z,101418.16
2023-04-16T16:18:14.883Z,101416.50
2023-04-16T16:20:43.142Z,101409.97
2023-04-16T16:23:11.493Z,101415.59
2023-04-16T16:25:41.904Z,101417.16
2023-04-16T16:28:11.810Z,101415.88
2023-04-16T16:30:40.838Z,101412.56
2023-04-16T16:33:09.373Z,101413.66
2023-04-16T16:35:37.885Z,101417.00
2023-04-16T16:38:06.357Z,101427.97
2023-04-16T16:40:34.794Z,101419.41
2023-04-16T16:43:03.592Z,101426.41
2023-04-16T16:45:33.091Z,101431.50
2023-04-16T16:48:04.593Z,101436.75
2023-04-16T16:50:33.563Z,101423.81
2023-04-16T16:53:01.743Z,101430.44
2023-04-16T16:55:31.666Z,101437.81
2023-04-16T16:58:01.696Z,101434.06
2023-04-16T17:00:30.472Z,101434.25
2023-04-16T17:03:01.576Z,101438.94
2023-04-16T17:05:31.055Z,101440.34
2023-04-16T17:07:59.870Z,101445.44
2023-04-16T17:10:28.340Z,101451.03
2023-04-16T17:12:56.923Z,101448.53
2023-04-16T17:15:26.436Z,101438.66
2023-04-16T17:17:57.445Z,101441.06
2023-04-16T17:20:27.400Z,101443.41
2023-04-16T17:22:59.713Z,101448.00
2023-04-16T17:25:28.323Z,101440.00
2023-04-16T17:27:56.460Z,101439.47
2023-04-16T17:30:27.245Z,101442.91
2023-04-16T17:32:55.467Z,101437.53
2023-04-16T17:35:24.800Z,101448.53
2023-04-16T17:37:55.110Z,101454.81
2023-04-16T17:40:23.808Z,101455.38
2023-04-16T17:42:52.268Z,101454.41
2023-04-16T17:45:21.583Z,101458.31
2023-04-16T17:47:49.902Z,101456.81
2023-04-16T17:50:18.248Z,101458.09
2023-04-16T17:52:47.134Z,101462.00
2023-04-16T17:55:17.488Z,101463.94
2023-04-16T17:57:45.777Z,101459.47
2023-04-16T18:00:14.367Z,101467.22
2023-04-16T18:02:43.076Z,101459.00
2023-04-16T18:05:11.641Z,101462.84
2023-04-16T18:07:40.421Z,101469.22
2023-04-16T18:10:10.031Z,101474.00
2023-04-16T18:12:39.789Z,101477.59
2023-04-16T18:15:08.494Z,101473.03
2023-04-16T18:17:36.740Z,101486.78
2023-04-16T18:20:07.729Z,101484.66
2023-04-16T18:22:36.644Z,101486.88
2023-04-16T18:25:05.394Z,101494.34
2023-04-16T18:27:33.632Z,101486.97
2023-04-16T18:30:04.771Z,101487.81
2023-04-16T18:32:33.853Z,101495.50
2023-04-16T18:35:02.380Z,101491.63
2023-04-16T18:37:30.771Z,101493.59
2023-04-16T18:39:59.010Z,101505.69
2023-04-16T18:42:28.035Z,101504.59
2023-04-16T18:44:56.882Z,101497.44
2023-04-16T18:47:26.644Z,101499.69
2023-04-16T18:49:54.901Z,101499.75
2023-04-16T18:52:23.277Z,101505.81
2023-04-16T18:54:51.651Z,101515.69
2023-04-16T18:57:20.368Z,101511.81
2023-04-16T18:59:48.787Z,101513.75
2023-04-16T19:02:17.430Z,101515.13
2023-04-16T19:04:47.777Z,101517.31
2023-04-16T19:07:16.510Z,101516.75
2023-04-16T19:09:44.598Z,101518.41
2023-04-16T19:12:13.223Z,101517.31
2023-04-16T19:14:42.876Z,101518.38
2023-04-16T19:17:12.470Z,101526.06
2023-04-16T19:19:40.711Z,101529.38
2023-04-16T19:22:10.434Z,101523.31
2023-04-16T19:24:38.746Z,101531.28
2023-04-16T19:27:06.819Z,101536.75
2023-04-16T19:29:35.517Z,101532.91
2023-04-16T19:32:03.868Z,101529.38
2023-04-16T19:34:32.037Z,101533.19
2023-04-16T19:37:00.307Z,101525.56
2023-04-16T19:39:29.853Z,101523.44
2023-04-16T19:41:58.079Z,101531.59
2023-04-16T19:44:27.589Z,101534.38
2023-04-16T19:46:56.000Z,101529.19
2023-04-16T19:49:25.156Z,101535.50
2023-04-16T19:51:53.208Z,101535.78
2023-04-16T19:54:21.942Z,101538.25
2023-04-16T19:56:52.702Z,101532.22
2023-04-16T19:59:21.593Z,101535.50
2023-04-16T20:01:50.166Z,101536.63
2023-04-16T20:04:18.603Z,101536.09
2023-04-16T20:06:47.079Z,101550.06
2023-04-16T20:09:15.444Z,101542.41
2023-04-16T20:11:44.434Z,101541.03
2023-04-16T20:14:13.919Z,101549.25
2023-04-16T20:16:43.580Z,101539.66
2023-04-16T20:19:18.707Z,101543.50
2023-04-16T20:21:47.008Z,101546.78
2023-04-16T20:24:15.493Z,101548.69
2023-04-16T20:26:43.753Z,101549.78
2023-04-16T20:29:12.334Z,101552.53
2023-04-16T20:31:44.359Z,101554.75
2023-04-16T20:34:12.766Z,101553.09
2023-04-16T20:36:41.405Z,101556.13
2023-04-16T20:39:10.814Z,101555.28
2023-04-16T20:41:45.386Z,101551.47
2023-04-16T20:44:18.012Z,101556.13
2023-04-16T20:46:49.808Z,101548.47
2023-04-16T20:49:18.740Z,101546.28
2023-04-16T20:51:47.099Z,101536.69
2023-04-16T20:54:15.766Z,101543.22
2023-04-16T20:56:44.834Z,101549.81
2023-04-16T20:59:14.354Z,101545.19
2023-04-16T21:01:42.701Z,101552.28
2023-04-16T21:04:12.515Z,101550.38
2023-04-16T21:06:42.994Z,101550.63
2023-04-16T21:09:11.707Z,101542.16
2023-04-16T21:11:40.411Z,101542.13
2023-04-16T21:14:09.116Z,101550.88
2023-04-16T21:16:37.558Z,101544.31
2023-04-16T21:19:06.043Z,101549.53
2023-04-16T21:21:36.679Z,101546.22
2023-04-16T21:24:05.344Z,101552.25
2023-04-16T21:26:33.475Z,101554.72
2023-04-16T21:29:01.523Z,101544.59
2023-04-16T21:31:29.736Z,101547.88
2023-04-16T21:33:58.537Z,101548.16
2023-04-16T21:36:27.690Z,101551.16
2023-04-16T21:38:57.159Z,101547.59
2023-04-16T21:41:25.594Z,101551.94
2023-04-16T21:43:53.988Z,101553.59
2023-04-16T21:46:22.575Z,101546.22
2023-04-16T21:48:50.892Z,101551.94
2023-04-16T21:51:20.046Z,101551.41
2023-04-16T21:53:48.218Z,101554.69
2023-04-16T21:56:17.681Z,101548.16
2023-04-16T21:58:45.870Z,101533.38
2023-04-16T22:01:14.155Z,101546.22
2023-04-16T22:03:42.872Z,101549.78
2023-04-16T22:06:11.567Z,101542.13
2023-04-16T22:08:53.558Z,101542.94
2023-04-16T22:11:23.588Z,101544.28
2023-04-16T22:13:51.894Z,101550.84
2023-04-16T22:16:20.328Z,101543.47
2023-04-16T22:18:48.431Z,101547.03
2023-04-16T22:21:19.345Z,101546.75
2023-04-16T22:23:47.714Z,101541.56
2023-04-16T22:26:16.084Z,101548.38
2023-04-16T22:28:45.551Z,101549.75
2023-04-16T22:31:13.595Z,101547.03
2023-04-16T22:33:41.676Z,101546.44
2023-04-16T22:36:09.982Z,101556.59
2023-04-16T22:38:38.617Z,101544.28
2023-04-16T22:41:06.819Z,101553.03
2023-04-16T22:43:36.963Z,101549.22
2023-04-16T22:46:07.112Z,101547.03
2023-04-16T22:48:36.235Z,101550.56
2023-04-16T22:51:05.325Z,101555.47
2023-04-16T22:53:33.714Z,101543.19
2023-04-16T22:56:01.775Z,101551.13
2023-04-16T22:58:30.338Z,101552.75
2023-04-16T23:00:59.412Z,101552.50
2023-04-16T23:03:29.174Z,101553.03
2023-04-16T23:05:57.627Z,101550.28
2023-04-16T23:08:25.959Z,101549.47
2023-04-16T23:10:53.993Z,101544.84
2023-04-16T23:13:22.105Z,101548.13
2023-04-16T23:15:50.263Z,101545.13
2023-04-16T23:18:19.397Z,101551.13
2023-04-16T23:20:51.024Z,101551.94
2023-04-16T23:23:19.183Z,101557.94
2023-04-16T23:25:47.352Z,101559.06
2023-04-16T23:28:15.672Z,101551.69
2023-04-16T23:30:43.898Z,101552.50
2023-04-16T23:33:11.958Z,101559.34
2023-04-16T23:35:40.207Z,101548.66
2023-04-16T23:38:09.628Z,101563.97
2023-04-16T23:40:38.209Z,101554.41
2023-04-16T23:43:06.337Z,101567.25
2023-04-16T23:45:34.640Z,101565.91
2023-04-16T23:48:03.064Z,101556.34
2023-04-16T23:50:31.377Z,101561.78
2023-04-16T23:52:59.474Z,101559.59
2023-04-16T23:55:28.893Z,101558.50
2023-04-16T23:57:57.432Z,101558.50
